Strona główna
METAR-TAF:

METAR-TAF

Lotnisko :

Port lotniczy Karlstad

Karlstad, Szwecja

Szerokość geograficzna: 59-26-41N, Długość geograficzna: 013-20-15E, wysokość: 107 m

Aktualna obserwacja pogody

Raport powstał 28 minut temu, godzina 19:20 UTC
Wiatr 4 kt od północno-północny zachód, zmienny między zachodnio-północny zachód i północ
Temperatura 17°C
Wilgotność 88%
Ciśnienie 1012 hPa
Widzialność 10 km lub więcej

METAR: ESOK 211920Z AUTO 33004KT 300V360 9999 R03/P1500N R21///// FEW005/// SCT020/// BKN037/// 17/15 Q1012

czas: 21:48 (19:48 UTC)


TAF: brakujący

Obserwacja i prognoza pogody dla ponad 4000 lotnisk (raport METAR i TAF).

Dostępne stacje oznaczono żółtymi i czerwonymi punktami na mapie.

Najedź kursorem aby zobaczyć nazwę stacji.

Kliknij aby zobaczyć obserwacje i prognozy pogody.

Aby zmienić mapę: kliknij na zielony przycisk z czarnym krzyżykiem, aby powiększyć; na zielony przycisk z myślnikiem, aby pomniejszyć; na zielone strzałki, aby przejść do map sąsiednich.


METAR-TAF: